Wetterdaten: Woche 25.09.23 - 01.10.23 (KW39)
Datum Zeit Temp. I. Temp. A. Feuchte I. Feuchte A. Luftdruck Regen Wind Richtung Sonnenschein Solar Taupunkt Windchill Windböen
25.09.2023 00:00 22,7 °C 8,6 °C 58 % 94 % 1027,7 hPa 0,0 l/m² 0,0 km/h (0 Bft) S 0,00 h 0 W/m² 7,7 °C 8,6 °C 0,0 km/h (0 Bft)
25.09.2023 01:00 22,6 °C 8,0 °C 58 % 94 % 1027,4 hPa 0,0 l/m² 0,0 km/h (0 Bft) S 0,00 h 0 W/m² 7,1 °C 8,0 °C 0,0 km/h (0 Bft)
25.09.2023 02:00 22,6 °C 7,5 °C 58 % 94 % 1027,1 hPa 0,0 l/m² 0,0 km/h (0 Bft) S 0,00 h 0 W/m² 6,6 °C 7,5 °C 0,0 km/h (0 Bft)
25.09.2023 03:00 22,4 °C 7,1 °C 58 % 94 % 1026,8 hPa 0,0 l/m² 0,0 km/h (0 Bft) S 0,00 h 0 W/m² 6,2 °C 7,1 °C 0,0 km/h (0 Bft)
25.09.2023 04:00 22,4 °C 6,7 °C 58 % 95 % 1026,9 hPa 0,0 l/m² 0,0 km/h (0 Bft) S 0,00 h 0 W/m² 5,9 °C 6,7 °C 0,0 km/h (0 Bft)
25.09.2023 05:00 22,4 °C 6,5 °C 58 % 95 % 1026,8 hPa 0,0 l/m² 0,0 km/h (0 Bft) S 0,00 h 0 W/m² 5,7 °C 6,5 °C 0,0 km/h (0 Bft)
25.09.2023 06:00 22,3 °C 5,9 °C 58 % 95 % 1026,9 hPa 0,0 l/m² 0,0 km/h (0 Bft) S 0,00 h 0 W/m² 5,2 °C 5,9 °C 0,0 km/h (0 Bft)
25.09.2023 07:00 22,2 °C 6,0 °C 58 % 95 % 1026,8 hPa 0,0 l/m² 0,6 km/h (0 Bft) S 0,20 h 30 W/m² 5,3 °C 6,0 °C 1,5 km/h (1 Bft)
25.09.2023 08:00 22,2 °C 8,2 °C 58 % 96 % 1026,9 hPa 0,0 l/m² 1,6 km/h (1 Bft) S 1,00 h 166 W/m² 7,6 °C 8,2 °C 2,9 km/h (1 Bft)
25.09.2023 09:00 22,5 °C 12,0 °C 57 % 91 % 1026,8 hPa 0,0 l/m² 3,5 km/h (1 Bft) O-NO 1,00 h 340 W/m² 10,6 °C 12,0 °C 6,4 km/h (2 Bft)
25.09.2023 10:00 23,0 °C 15,2 °C 56 % 80 % 1026,8 hPa 0,0 l/m² 3,4 km/h (1 Bft) O-NO 1,00 h 496 W/m² 11,7 °C 15,1 °C 6,5 km/h (2 Bft)
25.09.2023 11:00 23,4 °C 17,7 °C 56 % 71 % 1026,7 hPa 0,0 l/m² 4,4 km/h (1 Bft) O 1,00 h 604 W/m² 12,3 °C 17,6 °C 8,3 km/h (2 Bft)
25.09.2023 12:00 23,4 °C 19,1 °C 56 % 63 % 1026,2 hPa 0,0 l/m² 6,0 km/h (2 Bft) O 1,02 h 661 W/m² 11,9 °C 18,9 °C 10,6 km/h (2 Bft)
25.09.2023 13:00 23,2 °C 20,2 °C 56 % 57 % 1025,7 hPa 0,0 l/m² 5,2 km/h (1 Bft) O 1,00 h 666 W/m² 11,3 °C 19,8 °C 8,4 km/h (2 Bft)
25.09.2023 14:00 23,2 °C 20,6 °C 57 % 54 % 1025,3 hPa 0,0 l/m² 5,5 km/h (2 Bft) SO 1,00 h 601 W/m² 11,1 °C 20,3 °C 8,6 km/h (2 Bft)
25.09.2023 15:00 23,2 °C 20,8 °C 57 % 55 % 1024,9 hPa 0,0 l/m² 6,4 km/h (2 Bft) SO 1,00 h 485 W/m² 11,5 °C 20,4 °C 9,5 km/h (2 Bft)
25.09.2023 16:00 23,1 °C 20,9 °C 57 % 56 % 1024,5 hPa 0,0 l/m² 8,1 km/h (2 Bft) O-SO 1,00 h 334 W/m² 11,8 °C 20,2 °C 11,3 km/h (2 Bft)
25.09.2023 17:00 23,0 °C 20,8 °C 56 % 58 % 1024,1 hPa 0,0 l/m² 6,6 km/h (2 Bft) O-SO 1,00 h 193 W/m² 12,3 °C 20,4 °C 9,5 km/h (2 Bft)
25.09.2023 18:00 22,8 °C 19,0 °C 56 % 66 % 1024,1 hPa 0,0 l/m² 0,8 km/h (0 Bft) SO 0,13 h 30 W/m² 12,6 °C 19,0 °C 1,3 km/h (1 Bft)
25.09.2023 19:00 22,8 °C 15,5 °C 57 % 81 % 1024,3 hPa 0,0 l/m² 0,1 km/h (0 Bft) O-SO 0,00 h 5 W/m² 12,2 °C 15,5 °C 0,4 km/h (0 Bft)
25.09.2023 20:00 22,7 °C 13,4 °C 59 % 88 % 1024,4 hPa 0,0 l/m² 0,0 km/h (0 Bft) O-SO 0,00 h 0 W/m² 11,4 °C 13,4 °C 0,1 km/h (0 Bft)
25.09.2023 21:00 22,8 °C 12,3 °C 60 % 90 % 1024,4 hPa 0,0 l/m² 0,0 km/h (0 Bft) O-SO 0,00 h 0 W/m² 10,7 °C 12,3 °C 0,0 km/h (0 Bft)
25.09.2023 22:00 22,7 °C 11,4 °C 59 % 91 % 1024,4 hPa 0,0 l/m² 0,2 km/h (0 Bft) S 0,00 h 0 W/m² 10,0 °C 11,4 °C 0,3 km/h (0 Bft)
25.09.2023 23:00 22,6 °C 10,8 °C 59 % 92 % 1024,4 hPa 0,0 l/m² 0,2 km/h (0 Bft) SW 0,00 h 0 W/m² 9,5 °C 10,8 °C 0,6 km/h (0 Bft)
26.09.2023 00:00 22,5 °C 10,1 °C 60 % 93 % 1024,3 hPa 0,0 l/m² 0,2 km/h (0 Bft) SW 0,00 h 0 W/m² 9,0 °C 10,1 °C 0,5 km/h (0 Bft)
26.09.2023 01:00 22,4 °C 9,4 °C 60 % 93 % 1024,2 hPa 0,0 l/m² 0,2 km/h (0 Bft) SW 0,00 h 0 W/m² 8,3 °C 9,4 °C 0,5 km/h (0 Bft)
26.09.2023 02:00 22,3 °C 9,1 °C 60 % 93 % 1024,1 hPa 0,0 l/m² 0,0 km/h (0 Bft) SW 0,00 h 0 W/m² 8,1 °C 9,1 °C 0,0 km/h (0 Bft)
26.09.2023 03:00 22,3 °C 8,6 °C 60 % 94 % 1023,9 hPa 0,0 l/m² 0,0 km/h (0 Bft) SW 0,00 h 0 W/m² 7,7 °C 8,6 °C 0,0 km/h (0 Bft)
26.09.2023 04:00 22,2 °C 7,9 °C 60 % 94 % 1023,8 hPa 0,0 l/m² 0,0 km/h (0 Bft) SW 0,00 h 0 W/m² 7,0 °C 7,9 °C 0,0 km/h (0 Bft)
26.09.2023 05:00 22,1 °C 7,6 °C 60 % 94 % 1023,6 hPa 0,0 l/m² 0,1 km/h (0 Bft) SW 0,00 h 0 W/m² 6,8 °C 7,6 °C 0,3 km/h (0 Bft)
26.09.2023 06:00 22,1 °C 7,3 °C 60 % 94 % 1023,4 hPa 0,0 l/m² 0,3 km/h (0 Bft) SW 0,00 h 0 W/m² 6,5 °C 7,3 °C 0,5 km/h (0 Bft)
26.09.2023 07:00 22,0 °C 7,4 °C 58 % 95 % 1023,5 hPa 0,0 l/m² 0,0 km/h (0 Bft) S-SW 0,17 h 28 W/m² 6,6 °C 7,4 °C 0,0 km/h (0 Bft)
26.09.2023 08:00 21,9 °C 9,4 °C 58 % 94 % 1023,5 hPa 0,0 l/m² 0,0 km/h (0 Bft) S-SW 1,00 h 160 W/m² 8,5 °C 9,4 °C 0,0 km/h (0 Bft)
26.09.2023 09:00 22,2 °C 12,2 °C 58 % 91 % 1023,5 hPa 0,0 l/m² 0,0 km/h (0 Bft) S-SW 1,00 h 330 W/m² 10,7 °C 12,2 °C 0,0 km/h (0 Bft)
26.09.2023 10:00 22,8 °C 15,6 °C 57 % 83 % 1023,4 hPa 0,0 l/m² 0,1 km/h (0 Bft) S-SW 1,00 h 475 W/m² 12,8 °C 15,6 °C 0,3 km/h (0 Bft)
26.09.2023 11:00 23,2 °C 18,8 °C 56 % 75 % 1023,0 hPa 0,0 l/m² 0,5 km/h (0 Bft) SW 1,00 h 576 W/m² 14,3 °C 18,8 °C 1,3 km/h (1 Bft)
26.09.2023 12:00 23,6 °C 20,8 °C 56 % 69 % 1022,4 hPa 0,0 l/m² 2,2 km/h (1 Bft) SW 1,00 h 632 W/m² 15,0 °C 20,8 °C 3,8 km/h (1 Bft)
26.09.2023 13:00 23,8 °C 22,4 °C 55 % 64 % 1021,8 hPa 0,0 l/m² 1,8 km/h (1 Bft) S-SO 1,00 h 637 W/m² 15,3 °C 22,4 °C 3,5 km/h (1 Bft)
26.09.2023 14:00 23,9 °C 23,2 °C 55 % 63 % 1021,2 hPa 0,0 l/m² 3,2 km/h (1 Bft) O 1,00 h 583 W/m² 15,7 °C 23,1 °C 5,1 km/h (1 Bft)
26.09.2023 15:00 23,9 °C 23,8 °C 56 % 61 % 1020,8 hPa 0,0 l/m² 2,6 km/h (1 Bft) O 1,00 h 485 W/m² 15,7 °C 23,8 °C 4,5 km/h (1 Bft)
26.09.2023 16:00 23,8 °C 24,1 °C 56 % 60 % 1020,6 hPa 0,0 l/m² 1,9 km/h (1 Bft) O-NO 1,00 h 349 W/m² 15,7 °C 24,1 °C 3,2 km/h (1 Bft)
26.09.2023 17:00 23,6 °C 23,6 °C 56 % 63 % 1020,4 hPa 0,0 l/m² 0,4 km/h (0 Bft) O-NO 1,00 h 178 W/m² 16,1 °C 23,6 °C 0,9 km/h (0 Bft)
26.09.2023 18:00 23,3 °C 21,7 °C 57 % 72 % 1020,3 hPa 0,0 l/m² 0,5 km/h (0 Bft) O-NO 0,27 h 35 W/m² 16,3 °C 21,7 °C 0,9 km/h (0 Bft)
26.09.2023 19:00 23,2 °C 17,6 °C 59 % 85 % 1020,6 hPa 0,0 l/m² 0,0 km/h (0 Bft) O-NO 0,00 h 0 W/m² 15,1 °C 17,6 °C 0,0 km/h (0 Bft)
26.09.2023 20:00 23,2 °C 15,3 °C 59 % 90 % 1020,8 hPa 0,0 l/m² 0,0 km/h (0 Bft) O-NO 0,00 h 0 W/m² 13,6 °C 15,3 °C 0,0 km/h (0 Bft)
26.09.2023 21:00 23,1 °C 14,2 °C 59 % 92 % 1021,0 hPa 0,0 l/m² 0,0 km/h (0 Bft) O-NO 0,00 h 0 W/m² 12,8 °C 14,2 °C 0,0 km/h (0 Bft)
26.09.2023 22:00 23,1 °C 13,1 °C 59 % 93 % 1021,1 hPa 0,0 l/m² 0,1 km/h (0 Bft) O-NO 0,00 h 0 W/m² 11,9 °C 13,1 °C 0,3 km/h (0 Bft)
26.09.2023 23:00 22,9 °C 12,5 °C 60 % 93 % 1021,2 hPa 0,0 l/m² 0,2 km/h (0 Bft) O-NO 0,00 h 0 W/m² 11,4 °C 12,5 °C 0,5 km/h (0 Bft)
27.09.2023 00:00 22,8 °C 11,8 °C 60 % 93 % 1021,1 hPa 0,0 l/m² 0,0 km/h (0 Bft) O-NO 0,00 h 0 W/m² 10,8 °C 11,8 °C 0,1 km/h (0 Bft)
27.09.2023 01:00 22,8 °C 11,4 °C 60 % 94 % 1021,0 hPa 0,0 l/m² 0,0 km/h (0 Bft) O-NO 0,00 h 0 W/m² 10,4 °C 11,4 °C 0,0 km/h (0 Bft)
27.09.2023 02:00 22,7 °C 10,7 °C 60 % 95 % 1021,0 hPa 0,0 l/m² 0,0 km/h (0 Bft) O-NO 0,00 h 0 W/m² 9,9 °C 10,7 °C 0,2 km/h (0 Bft)
27.09.2023 03:00 22,7 °C 10,2 °C 60 % 95 % 1021,0 hPa 0,0 l/m² 0,0 km/h (0 Bft) O-NO 0,00 h 0 W/m² 9,4 °C 10,2 °C 0,3 km/h (0 Bft)
27.09.2023 04:00 22,6 °C 9,8 °C 60 % 95 % 1021,1 hPa 0,0 l/m² 0,3 km/h (0 Bft) O-NO 0,00 h 0 W/m² 9,0 °C 9,8 °C 0,5 km/h (0 Bft)
27.09.2023 05:00 22,5 °C 9,5 °C 60 % 95 % 1020,9 hPa 0,0 l/m² 0,2 km/h (0 Bft) O-NO 0,00 h 0 W/m² 8,8 °C 9,5 °C 0,6 km/h (0 Bft)
27.09.2023 06:00 22,4 °C 9,3 °C 60 % 95 % 1021,3 hPa 0,0 l/m² 0,2 km/h (0 Bft) O-NO 0,00 h 0 W/m² 8,6 °C 9,3 °C 0,3 km/h (0 Bft)
27.09.2023 07:00 22,4 °C 9,2 °C 58 % 95 % 1022,1 hPa 0,0 l/m² 0,0 km/h (0 Bft) O-NO 0,00 h 21 W/m² 8,6 °C 9,2 °C 0,0 km/h (0 Bft)
27.09.2023 08:00 22,4 °C 10,9 °C 58 % 96 % 1022,2 hPa 0,0 l/m² 1,5 km/h (1 Bft) O-NO 0,95 h 141 W/m² 10,2 °C 10,9 °C 2,5 km/h (1 Bft)
27.09.2023 09:00 22,6 °C 14,3 °C 58 % 92 % 1022,2 hPa 0,0 l/m² 0,8 km/h (0 Bft) O-NO 1,00 h 306 W/m² 13,0 °C 14,3 °C 1,7 km/h (1 Bft)
27.09.2023 10:00 23,1 °C 17,4 °C 57 % 85 % 1022,4 hPa 0,0 l/m² 1,1 km/h (1 Bft) NO 1,00 h 455 W/m² 14,9 °C 17,4 °C 2,3 km/h (1 Bft)
27.09.2023 11:00 23,6 °C 20,7 °C 56 % 78 % 1021,9 hPa 0,0 l/m² 2,2 km/h (1 Bft) N-NO 1,00 h 567 W/m² 16,7 °C 20,7 °C 3,5 km/h (1 Bft)
27.09.2023 12:00 24,0 °C 22,7 °C 56 % 73 % 1021,1 hPa 0,0 l/m² 9,9 km/h (2 Bft) O-SO 1,00 h 632 W/m² 17,6 °C 21,7 °C 13,7 km/h (3 Bft)
27.09.2023 13:00 24,1 °C 24,0 °C 56 % 69 % 1020,4 hPa 0,0 l/m² 8,8 km/h (2 Bft) SO 1,00 h 576 W/m² 17,9 °C 23,4 °C 12,9 km/h (3 Bft)
27.09.2023 14:00 24,2 °C 25,0 °C 56 % 66 % 1019,9 hPa 0,0 l/m² 5,0 km/h (1 Bft) SO 1,00 h 631 W/m² 18,2 °C 24,9 °C 8,0 km/h (2 Bft)
27.09.2023 15:00 24,0 °C 25,5 °C 57 % 65 % 1019,3 hPa 0,0 l/m² 4,2 km/h (1 Bft) O-SO 1,00 h 445 W/m² 18,3 °C 25,4 °C 6,4 km/h (2 Bft)
27.09.2023 16:00 23,7 °C 25,0 °C 57 % 66 % 1018,7 hPa 0,0 l/m² 1,8 km/h (1 Bft) O 1,00 h 185 W/m² 18,2 °C 25,0 °C 2,9 km/h (1 Bft)
27.09.2023 17:00 23,6 °C 25,0 °C 58 % 68 % 1018,4 hPa 0,0 l/m² 0,6 km/h (0 Bft) O 1,00 h 172 W/m² 18,7 °C 25,0 °C 1,3 km/h (1 Bft)
27.09.2023 18:00 23,5 °C 23,4 °C 59 % 75 % 1018,3 hPa 0,0 l/m² 0,0 km/h (0 Bft) O 0,42 h 44 W/m² 18,7 °C 23,4 °C 0,1 km/h (0 Bft)
27.09.2023 19:00 23,3 °C 19,9 °C 59 % 84 % 1017,9 hPa 0,0 l/m² 1,6 km/h (1 Bft) O 0,00 h 0 W/m² 17,1 °C 19,9 °C 2,8 km/h (1 Bft)
27.09.2023 20:00 23,3 °C 17,9 °C 59 % 88 % 1017,5 hPa 0,0 l/m² 1,5 km/h (1 Bft) O-NO 0,00 h 0 W/m² 15,9 °C 17,9 °C 2,7 km/h (1 Bft)
27.09.2023 21:00 23,3 °C 16,6 °C 59 % 91 % 1017,3 hPa 0,0 l/m² 0,0 km/h (0 Bft) O-NO 0,00 h 0 W/m² 15,2 °C 16,6 °C 0,0 km/h (0 Bft)
27.09.2023 22:00 23,2 °C 15,5 °C 59 % 93 % 1017,1 hPa 0,0 l/m² 0,0 km/h (0 Bft) O-NO 0,00 h 0 W/m² 14,5 °C 15,5 °C 0,0 km/h (0 Bft)
27.09.2023 23:00 23,1 °C 14,8 °C 59 % 94 % 1016,9 hPa 0,0 l/m² 0,0 km/h (0 Bft) O-NO 0,00 h 0 W/m² 13,8 °C 14,8 °C 0,0 km/h (0 Bft)
28.09.2023 00:00 23,0 °C 14,0 °C 60 % 95 % 1016,6 hPa 0,0 l/m² 0,0 km/h (0 Bft) O-NO 0,00 h 0 W/m² 13,2 °C 14,0 °C 0,0 km/h (0 Bft)
28.09.2023 01:00 22,9 °C 13,3 °C 60 % 95 % 1016,5 hPa 0,0 l/m² 0,0 km/h (0 Bft) O-NO 0,00 h 0 W/m² 12,5 °C 13,3 °C 0,0 km/h (0 Bft)
28.09.2023 02:00 22,9 °C 12,9 °C 60 % 95 % 1016,5 hPa 0,0 l/m² 0,4 km/h (0 Bft) O-NO 0,00 h 0 W/m² 12,1 °C 12,9 °C 0,9 km/h (0 Bft)
28.09.2023 03:00 22,8 °C 12,7 °C 60 % 96 % 1016,3 hPa 0,0 l/m² 1,0 km/h (0 Bft) O-NO 0,00 h 0 W/m² 12,1 °C 12,7 °C 2,1 km/h (1 Bft)
28.09.2023 04:00 22,7 °C 12,3 °C 60 % 96 % 1016,3 hPa 0,0 l/m² 0,5 km/h (0 Bft) O-NO 0,00 h 0 W/m² 11,6 °C 12,3 °C 1,2 km/h (1 Bft)
28.09.2023 05:00 22,7 °C 11,8 °C 60 % 96 % 1016,5 hPa 0,0 l/m² 0,3 km/h (0 Bft) O-NO 0,00 h 0 W/m² 11,2 °C 11,8 °C 0,7 km/h (0 Bft)
28.09.2023 06:00 22,7 °C 11,4 °C 60 % 96 % 1016,8 hPa 0,0 l/m² 0,2 km/h (0 Bft) O-NO 0,00 h 7 W/m² 10,8 °C 11,4 °C 0,6 km/h (0 Bft)
28.09.2023 07:00 22,4 °C 11,5 °C 56 % 96 % 1016,8 hPa 0,0 l/m² 0,0 km/h (0 Bft) O-NO 0,32 h 42 W/m² 10,8 °C 11,5 °C 0,1 km/h (0 Bft)
28.09.2023 08:00 22,5 °C 13,3 °C 57 % 96 % 1017,1 hPa 0,0 l/m² 0,4 km/h (0 Bft) O-NO 1,00 h 106 W/m² 12,7 °C 13,3 °C 0,8 km/h (0 Bft)
28.09.2023 09:00 22,8 °C 16,7 °C 58 % 93 % 1017,5 hPa 0,0 l/m² 3,2 km/h (1 Bft) O-NO 1,00 h 323 W/m² 15,5 °C 16,6 °C 4,5 km/h (1 Bft)
28.09.2023 10:00 23,3 °C 19,9 °C 57 % 84 % 1017,9 hPa 0,0 l/m² 7,6 km/h (2 Bft) S-SW 1,00 h 478 W/m² 17,1 °C 19,3 °C 10,4 km/h (2 Bft)
28.09.2023 11:00 23,8 °C 22,4 °C 56 % 75 % 1017,7 hPa 0,0 l/m² 6,0 km/h (2 Bft) S-SW 1,00 h 448 W/m² 17,7 °C 22,2 °C 8,3 km/h (2 Bft)
28.09.2023 12:00 23,6 °C 23,1 °C 57 % 73 % 1017,9 hPa 0,0 l/m² 5,6 km/h (2 Bft) SW 1,00 h 384 W/m² 17,9 °C 23,0 °C 7,5 km/h (2 Bft)
28.09.2023 13:00 23,8 °C 24,5 °C 57 % 67 % 1017,8 hPa 0,0 l/m² 3,1 km/h (1 Bft) SW 1,00 h 587 W/m² 17,9 °C 24,5 °C 4,7 km/h (1 Bft)
28.09.2023 14:00 24,2 °C 25,5 °C 56 % 63 % 1017,6 hPa 0,0 l/m² 1,7 km/h (1 Bft) S-SW 1,00 h 568 W/m² 17,9 °C 25,5 °C 2,9 km/h (1 Bft)
28.09.2023 15:00 24,1 °C 26,0 °C 57 % 60 % 1017,4 hPa 0,0 l/m² 1,6 km/h (1 Bft) S-SW 1,00 h 459 W/m² 17,5 °C 26,0 °C 2,8 km/h (1 Bft)
28.09.2023 16:00 23,9 °C 25,7 °C 57 % 60 % 1017,1 hPa 0,0 l/m² 3,4 km/h (1 Bft) O 1,00 h 318 W/m² 17,3 °C 25,7 °C 5,1 km/h (1 Bft)
28.09.2023 17:00 23,8 °C 25,1 °C 57 % 61 % 1017,1 hPa 0,0 l/m² 1,1 km/h (1 Bft) O 1,00 h 128 W/m² 17,1 °C 25,1 °C 2,2 km/h (1 Bft)
28.09.2023 18:00 23,7 °C 22,3 °C 58 % 73 % 1017,1 hPa 0,0 l/m² 0,0 km/h (0 Bft) O 0,15 h 26 W/m² 17,2 °C 22,3 °C 0,0 km/h (0 Bft)
28.09.2023 19:00 23,6 °C 18,7 °C 59 % 83 % 1017,3 hPa 0,0 l/m² 0,0 km/h (0 Bft) O 0,00 h 0 W/m² 15,8 °C 18,7 °C 0,0 km/h (0 Bft)
28.09.2023 20:00 23,6 °C 16,7 °C 60 % 88 % 1017,5 hPa 0,0 l/m² 0,3 km/h (0 Bft) O 0,00 h 0 W/m² 14,7 °C 16,7 °C 0,5 km/h (0 Bft)
28.09.2023 21:00 23,6 °C 15,6 °C 60 % 90 % 1017,8 hPa 0,0 l/m² 0,2 km/h (0 Bft) O 0,00 h 0 W/m² 14,0 °C 15,6 °C 0,3 km/h (0 Bft)
28.09.2023 22:00 23,6 °C 15,3 °C 60 % 91 % 1017,9 hPa 0,0 l/m² 0,1 km/h (0 Bft) O 0,00 h 0 W/m² 13,9 °C 15,3 °C 0,3 km/h (0 Bft)
28.09.2023 23:00 23,4 °C 14,5 °C 60 % 93 % 1017,8 hPa 0,0 l/m² 0,2 km/h (0 Bft) O 0,00 h 0 W/m² 13,3 °C 14,5 °C 0,4 km/h (0 Bft)
29.09.2023 00:00 23,3 °C 13,9 °C 60 % 94 % 1017,7 hPa 0,0 l/m² 0,1 km/h (0 Bft) O 0,00 h 0 W/m² 12,9 °C 13,9 °C 0,2 km/h (0 Bft)
29.09.2023 01:00 23,2 °C 13,6 °C 60 % 94 % 1017,6 hPa 0,0 l/m² 0,6 km/h (0 Bft) O 0,00 h 0 W/m² 12,6 °C 13,6 °C 1,2 km/h (1 Bft)
29.09.2023 02:00 23,1 °C 13,0 °C 60 % 95 % 1017,6 hPa 0,0 l/m² 0,2 km/h (0 Bft) O 0,00 h 0 W/m² 12,2 °C 13,0 °C 0,4 km/h (0 Bft)
29.09.2023 03:00 23,1 °C 12,6 °C 60 % 95 % 1017,4 hPa 0,0 l/m² 0,3 km/h (0 Bft) O 0,00 h 0 W/m² 11,8 °C 12,6 °C 0,9 km/h (0 Bft)
29.09.2023 04:00 23,0 °C 12,2 °C 60 % 95 % 1017,4 hPa 0,0 l/m² 0,5 km/h (0 Bft) O 0,00 h 0 W/m² 11,4 °C 12,2 °C 1,2 km/h (1 Bft)
29.09.2023 05:00 22,9 °C 12,4 °C 60 % 95 % 1017,2 hPa 0,0 l/m² 0,6 km/h (0 Bft) O 0,00 h 0 W/m² 11,7 °C 12,4 °C 1,8 km/h (1 Bft)
29.09.2023 06:00 22,9 °C 13,6 °C 61 % 96 % 1017,3 hPa 0,0 l/m² 2,0 km/h (1 Bft) O 0,00 h 0 W/m² 12,9 °C 13,6 °C 3,6 km/h (1 Bft)
29.09.2023 07:00 22,8 °C 13,5 °C 59 % 95 % 1017,5 hPa 0,0 l/m² 1,1 km/h (1 Bft) O-NO 0,15 h 32 W/m² 12,7 °C 13,5 °C 2,5 km/h (1 Bft)
29.09.2023 08:00 22,8 °C 14,8 °C 60 % 93 % 1017,6 hPa 0,0 l/m² 0,2 km/h (0 Bft) O-NO 0,92 h 124 W/m² 13,8 °C 14,8 °C 0,5 km/h (0 Bft)
29.09.2023 09:00 22,9 °C 17,2 °C 59 % 88 % 1017,7 hPa 0,0 l/m² 2,2 km/h (1 Bft) O-NO 1,00 h 129 W/m² 15,2 °C 17,2 °C 3,3 km/h (1 Bft)
29.09.2023 10:00 22,9 °C 18,3 °C 59 % 83 % 1017,7 hPa 0,0 l/m² 1,0 km/h (0 Bft) O-NO 1,00 h 143 W/m² 15,4 °C 18,3 °C 1,7 km/h (1 Bft)
29.09.2023 11:00 22,9 °C 20,1 °C 59 % 79 % 1017,7 hPa 0,0 l/m² 1,3 km/h (1 Bft) O-NO 1,00 h 165 W/m² 16,2 °C 20,1 °C 2,1 km/h (1 Bft)
29.09.2023 12:00 22,9 °C 20,8 °C 59 % 79 % 1017,6 hPa 0,0 l/m² 1,7 km/h (1 Bft) O-NO 1,00 h 116 W/m² 16,9 °C 20,8 °C 2,8 km/h (1 Bft)
29.09.2023 13:00 22,9 °C 21,9 °C 59 % 77 % 1017,2 hPa 0,0 l/m² 0,6 km/h (0 Bft) O-NO 1,00 h 200 W/m² 17,7 °C 21,9 °C 1,4 km/h (1 Bft)
29.09.2023 14:00 23,0 °C 23,3 °C 59 % 68 % 1016,5 hPa 0,0 l/m² 4,9 km/h (1 Bft) SO 1,00 h 261 W/m² 17,1 °C 23,3 °C 6,6 km/h (2 Bft)
29.09.2023 15:00 23,2 °C 25,2 °C 59 % 61 % 1016,0 hPa 0,0 l/m² 8,6 km/h (2 Bft) S 1,00 h 415 W/m² 17,1 °C 24,5 °C 11,7 km/h (2 Bft)
29.09.2023 16:00 23,3 °C 24,5 °C 59 % 60 % 1015,6 hPa 0,0 l/m² 9,9 km/h (2 Bft) S 1,00 h 149 W/m² 16,2 °C 23,7 °C 13,5 km/h (3 Bft)
29.09.2023 17:00 23,1 °C 23,3 °C 59 % 64 % 1015,4 hPa 0,0 l/m² 3,8 km/h (1 Bft) S-SO 0,42 h 54 W/m² 16,0 °C 23,3 °C 5,7 km/h (2 Bft)
29.09.2023 18:00 23,1 °C 22,5 °C 61 % 68 % 1015,7 hPa 0,0 l/m² 7,3 km/h (2 Bft) S-SW 0,00 h 17 W/m² 16,4 °C 22,2 °C 9,3 km/h (2 Bft)
29.09.2023 19:00 23,3 °C 22,5 °C 64 % 71 % 1016,2 hPa 0,0 l/m² 8,6 km/h (2 Bft) S-SW 0,00 h 0 W/m² 16,9 °C 21,8 °C 11,5 km/h (2 Bft)
29.09.2023 20:00 23,4 °C 21,2 °C 63 % 76 % 1016,9 hPa 0,0 l/m² 3,7 km/h (1 Bft) W-SW 0,00 h 0 W/m² 16,9 °C 21,2 °C 5,7 km/h (2 Bft)
29.09.2023 21:00 23,4 °C 20,3 °C 63 % 76 % 1017,7 hPa 0,0 l/m² 4,8 km/h (1 Bft) W 0,00 h 0 W/m² 15,9 °C 20,2 °C 8,8 km/h (2 Bft)
29.09.2023 22:00 23,2 °C 18,1 °C 64 % 80 % 1018,4 hPa 0,0 l/m² 1,3 km/h (1 Bft) W-SW 0,00 h 0 W/m² 14,5 °C 18,1 °C 2,6 km/h (1 Bft)
29.09.2023 23:00 23,1 °C 18,4 °C 64 % 83 % 1019,6 hPa 0,0 l/m² 13,9 km/h (3 Bft) W-NW 0,00 h 0 W/m² 15,4 °C 15,8 °C 25,5 km/h (4 Bft)
30.09.2023 00:00 23,1 °C 17,4 °C 64 % 80 % 1021,0 hPa 0,0 l/m² 11,4 km/h (2 Bft) W 0,00 h 0 W/m² 14,0 °C 15,4 °C 22,0 km/h (4 Bft)
30.09.2023 01:00 23,0 °C 16,8 °C 64 % 81 % 1021,7 hPa 0,0 l/m² 6,7 km/h (2 Bft) NW 0,00 h 0 W/m² 13,5 °C 16,1 °C 13,9 km/h (3 Bft)
30.09.2023 02:00 22,9 °C 15,7 °C 64 % 81 % 1022,7 hPa 0,0 l/m² 6,9 km/h (2 Bft) W-NW 0,00 h 0 W/m² 12,5 °C 15,0 °C 13,8 km/h (3 Bft)
30.09.2023 03:00 22,9 °C 13,8 °C 64 % 87 % 1023,3 hPa 0,0 l/m² 3,1 km/h (1 Bft) W 0,00 h 0 W/m² 11,6 °C 13,8 °C 6,6 km/h (2 Bft)
30.09.2023 04:00 22,8 °C 12,5 °C 63 % 90 % 1024,0 hPa 0,0 l/m² 3,4 km/h (1 Bft) W-SW 0,00 h 0 W/m² 10,9 °C 12,5 °C 6,6 km/h (2 Bft)
30.09.2023 05:00 22,8 °C 11,2 °C 63 % 91 % 1024,4 hPa 0,0 l/m² 1,7 km/h (1 Bft) W-SW 0,00 h 0 W/m² 9,7 °C 11,2 °C 2,8 km/h (1 Bft)
30.09.2023 06:00 22,7 °C 10,5 °C 63 % 92 % 1024,6 hPa 0,0 l/m² 0,7 km/h (0 Bft) W-SW 0,00 h 0 W/m² 9,3 °C 10,5 °C 1,4 km/h (1 Bft)
30.09.2023 07:00 22,7 °C 10,4 °C 63 % 92 % 1025,2 hPa 0,0 l/m² 0,4 km/h (0 Bft) W 0,07 h 22 W/m² 9,2 °C 10,4 °C 0,9 km/h (0 Bft)
30.09.2023 08:00 22,7 °C 11,8 °C 63 % 90 % 1025,5 hPa 0,0 l/m² 2,2 km/h (1 Bft) S 1,00 h 126 W/m² 10,3 °C 11,8 °C 3,3 km/h (1 Bft)
30.09.2023 09:00 22,9 °C 13,5 °C 64 % 88 % 1026,0 hPa 0,0 l/m² 4,3 km/h (1 Bft) S-SW 1,00 h 188 W/m² 11,5 °C 13,5 °C 6,0 km/h (2 Bft)
30.09.2023 10:00 23,1 °C 16,0 °C 60 % 81 % 1026,5 hPa 0,0 l/m² 7,2 km/h (2 Bft) SW 1,00 h 464 W/m² 12,6 °C 15,4 °C 10,1 km/h (2 Bft)
30.09.2023 11:00 23,6 °C 17,7 °C 56 % 69 % 1026,5 hPa 0,0 l/m² 7,3 km/h (2 Bft) W-SW 1,00 h 405 W/m² 12,1 °C 17,1 °C 11,9 km/h (2 Bft)
30.09.2023 12:00 23,6 °C 18,8 °C 55 % 66 % 1026,5 hPa 0,0 l/m² 9,7 km/h (2 Bft) SW 1,00 h 655 W/m² 12,2 °C 17,4 °C 13,2 km/h (3 Bft)
30.09.2023 13:00 23,6 °C 19,9 °C 56 % 59 % 1026,2 hPa 0,0 l/m² 4,9 km/h (1 Bft) W-SW 1,00 h 695 W/m² 11,7 °C 19,7 °C 8,0 km/h (2 Bft)
30.09.2023 14:00 23,6 °C 20,3 °C 55 % 56 % 1025,9 hPa 0,0 l/m² 5,1 km/h (1 Bft) W-SW 1,00 h 553 W/m² 11,4 °C 20,2 °C 8,0 km/h (2 Bft)
30.09.2023 15:00 23,7 °C 20,4 °C 53 % 52 % 1025,5 hPa 0,0 l/m² 3,8 km/h (1 Bft) W 1,00 h 413 W/m² 10,2 °C 20,3 °C 6,7 km/h (2 Bft)
30.09.2023 16:00 23,6 °C 20,5 °C 53 % 51 % 1025,2 hPa 0,0 l/m² 3,6 km/h (1 Bft) W 1,00 h 297 W/m² 10,0 °C 20,5 °C 6,6 km/h (2 Bft)
30.09.2023 17:00 23,4 °C 18,9 °C 53 % 59 % 1025,0 hPa 0,0 l/m² 3,4 km/h (1 Bft) S-SW 1,00 h 115 W/m² 10,7 °C 18,9 °C 5,2 km/h (1 Bft)
30.09.2023 18:00 23,3 °C 16,8 °C 55 % 69 % 1025,1 hPa 0,0 l/m² 0,5 km/h (0 Bft) W-NW 0,08 h 27 W/m² 11,0 °C 16,8 °C 1,1 km/h (0 Bft)
30.09.2023 19:00 23,2 °C 14,0 °C 56 % 80 % 1025,4 hPa 0,0 l/m² 0,0 km/h (0 Bft) W-SW 0,00 h 0 W/m² 10,5 °C 14,0 °C 0,1 km/h (0 Bft)
30.09.2023 20:00 23,1 °C 12,3 °C 56 % 84 % 1025,6 hPa 0,0 l/m² 0,0 km/h (0 Bft) W-SW 0,00 h 0 W/m² 9,6 °C 12,3 °C 0,0 km/h (0 Bft)
30.09.2023 21:00 23,0 °C 10,8 °C 57 % 87 % 1025,6 hPa 0,0 l/m² 0,0 km/h (0 Bft) W-SW 0,00 h 0 W/m² 8,7 °C 10,8 °C 0,0 km/h (0 Bft)
30.09.2023 22:00 22,9 °C 9,9 °C 57 % 89 % 1025,6 hPa 0,0 l/m² 0,0 km/h (0 Bft) W-SW 0,00 h 0 W/m² 8,1 °C 9,9 °C 0,0 km/h (0 Bft)
30.09.2023 23:00 22,9 °C 10,1 °C 57 % 90 % 1025,7 hPa 0,0 l/m² 0,0 km/h (0 Bft) W-SW 0,00 h 0 W/m² 8,6 °C 10,1 °C 0,2 km/h (0 Bft)
01.10.2023 00:00 22,8 °C 10,3 °C 57 % 91 % 1025,6 hPa 0,0 l/m² 0,0 km/h (0 Bft) W-SW 0,00 h 0 W/m² 8,9 °C 10,3 °C 0,2 km/h (0 Bft)
01.10.2023 01:00 22,8 °C 10,8 °C 58 % 91 % 1025,4 hPa 0,0 l/m² 0,2 km/h (0 Bft) W-SW 0,00 h 0 W/m² 9,4 °C 10,8 °C 0,7 km/h (0 Bft)
01.10.2023 02:00 22,7 °C 11,1 °C 58 % 90 % 1025,3 hPa 0,0 l/m² 0,6 km/h (0 Bft) W-SW 0,00 h 0 W/m² 9,4 °C 11,1 °C 1,2 km/h (1 Bft)
01.10.2023 03:00 22,7 °C 11,2 °C 58 % 90 % 1025,0 hPa 0,0 l/m² 1,1 km/h (0 Bft) O-SO 0,00 h 0 W/m² 9,7 °C 11,2 °C 1,8 km/h (1 Bft)
01.10.2023 04:00 22,6 °C 11,7 °C 58 % 89 % 1024,5 hPa 0,0 l/m² 0,1 km/h (0 Bft) O-SO 0,00 h 0 W/m² 10,0 °C 11,7 °C 0,4 km/h (0 Bft)
01.10.2023 05:00 22,5 °C 12,4 °C 58 % 87 % 1024,5 hPa 0,0 l/m² 0,7 km/h (0 Bft) O-SO 0,00 h 0 W/m² 10,2 °C 12,4 °C 1,6 km/h (1 Bft)
01.10.2023 06:00 22,4 °C 13,0 °C 58 % 83 % 1024,5 hPa 0,0 l/m² 1,5 km/h (1 Bft) S-SW 0,00 h 0 W/m² 10,1 °C 13,0 °C 3,5 km/h (1 Bft)
01.10.2023 07:00 22,4 °C 12,8 °C 58 % 84 % 1024,7 hPa 0,0 l/m² 2,5 km/h (1 Bft) S-SW 0,00 h 22 W/m² 10,2 °C 12,8 °C 4,1 km/h (1 Bft)
01.10.2023 08:00 22,5 °C 13,2 °C 60 % 84 % 1024,8 hPa 0,0 l/m² 4,1 km/h (1 Bft) S-SW 0,72 h 87 W/m² 10,5 °C 13,2 °C 5,9 km/h (2 Bft)
01.10.2023 09:00 22,7 °C 14,8 °C 59 % 79 % 1024,8 hPa 0,0 l/m² 6,0 km/h (2 Bft) SW 1,00 h 163 W/m² 11,1 °C 14,6 °C 9,0 km/h (2 Bft)
01.10.2023 10:00 22,7 °C 16,5 °C 58 % 74 % 1024,8 hPa 0,0 l/m² 10,8 km/h (2 Bft) SW 1,00 h 239 W/m² 11,9 °C 14,6 °C 15,7 km/h (3 Bft)
01.10.2023 11:00 22,8 °C 17,9 °C 58 % 71 % 1024,8 hPa 0,0 l/m² 13,5 km/h (3 Bft) SW 1,00 h 365 W/m² 12,6 °C 15,2 °C 18,3 km/h (3 Bft)
01.10.2023 12:00 23,2 °C 19,3 °C 57 % 68 % 1024,7 hPa 0,0 l/m² 13,3 km/h (3 Bft) SW 1,00 h 477 W/m² 13,2 °C 16,9 °C 17,5 km/h (3 Bft)
01.10.2023 13:00 23,1 °C 19,6 °C 58 % 65 % 1024,5 hPa 0,0 l/m² 12,4 km/h (2 Bft) SW 1,00 h 319 W/m² 12,9 °C 17,5 °C 16,9 km/h (3 Bft)
01.10.2023 14:00 23,1 °C 20,4 °C 58 % 60 % 1023,9 hPa 0,0 l/m² 13,2 km/h (3 Bft) SW 1,00 h 286 W/m² 12,4 °C 18,2 °C 17,8 km/h (3 Bft)
01.10.2023 15:00 23,0 °C 21,4 °C 58 % 60 % 1023,4 hPa 0,0 l/m² 8,1 km/h (2 Bft) W-SW 1,00 h 362 W/m² 13,2 °C 20,7 °C 11,8 km/h (2 Bft)
01.10.2023 16:00 23,2 °C 21,6 °C 58 % 61 % 1022,9 hPa 0,0 l/m² 11,3 km/h (2 Bft) SW 1,00 h 275 W/m² 13,7 °C 20,1 °C 14,9 km/h (3 Bft)
01.10.2023 17:00 23,1 °C 21,3 °C 58 % 63 % 1022,7 hPa 0,0 l/m² 5,8 km/h (2 Bft) W-SW 0,87 h 121 W/m² 14,0 °C 21,1 °C 8,7 km/h (2 Bft)
01.10.2023 18:00 23,0 °C 18,9 °C 58 % 72 % 1022,7 hPa 0,0 l/m² 0,6 km/h (0 Bft) W-SW 0,00 h 21 W/m² 13,7 °C 18,9 °C 0,9 km/h (0 Bft)
01.10.2023 19:00 22,9 °C 16,5 °C 59 % 79 % 1022,8 hPa 0,0 l/m² 0,0 km/h (0 Bft) W-SW 0,00 h 0 W/m² 12,9 °C 16,5 °C 0,0 km/h (0 Bft)
01.10.2023 20:00 23,0 °C 14,9 °C 59 % 83 % 1022,8 hPa 0,0 l/m² 0,1 km/h (0 Bft) W-SW 0,00 h 0 W/m² 12,1 °C 14,9 °C 0,2 km/h (0 Bft)
01.10.2023 21:00 22,9 °C 13,6 °C 59 % 86 % 1023,0 hPa 0,0 l/m² 0,2 km/h (0 Bft) W-SW 0,00 h 0 W/m² 11,3 °C 13,6 °C 0,3 km/h (0 Bft)
01.10.2023 22:00 22,8 °C 12,6 °C 59 % 89 % 1022,9 hPa 0,0 l/m² 0,4 km/h (0 Bft) W-SW 0,00 h 0 W/m² 10,8 °C 12,6 °C 0,8 km/h (0 Bft)
01.10.2023 23:00 22,6 °C 12,1 °C 60 % 89 % 1022,8 hPa 0,0 l/m² 0,9 km/h (0 Bft) W-SW 0,00 h 0 W/m² 10,4 °C 12,1 °C 1,5 km/h (1 Bft)
Min-Datum _ 26.09.23 25.09.23 30.09.23 30.09.23 29.09.23 - 01.10.23 - - - 25.09.23 25.09.23 01.10.23
_ Min-Zeit 08:00 07:16 16:19 16:40 17:21 - 23:02 - - - 07:16 07:16 23:02
Minimum _ 21,9 °C 5,7 °C 52 % 47 % 1015,2 hPa - 0,0 km/h (0 Bft) - - - 5,0 °C 5,7 °C 0,0 km/h (0 Bft)
Max-Datum _ 28.09.23 28.09.23 29.09.23 28.09.23 25.09.23 01.10.23 01.10.23 - 01.10.23 30.09.23 27.09.23 28.09.23 29.09.23
_ Max-Zeit 15:01 15:38 19:13 08:01 00:01 23:00 14:09 - 08:24 13:06 17:07 15:38 23:37
Maximum _ 24,3 °C 26,6 °C 65 % 97 % 1027,9 hPa 0,0 l/m² 21,7 km/h
SW (4 Bft)
- 0,05 h 803 W/m² 20,1 °C 26,6 °C 40,2 km/h
W-NW (6 Bft)
Durchschnitt _ 23,0 °C 15,8 °C 59 % 82 % 1021,7 hPa #0,0 l/m² 2,5 km/h (1 Bft) O-NO #70:50 h 153 W/m² 12,4 °C 15,7 °C 3,9 km/h (1 Bft)
© 2009 Mathias Hoßbach